Riacho de Santana, Brazil
Current Conditions -  °F | °C
As of 6:00 AM on Thursday 27 Nov 2014 (Local Time) from SBQV Reporting Station
Scattered Clouds Scattered Clouds  
Wind Chill: 64°   Ceiling: Unl
Heat Index: 64°   Visibility: 6mi
Dew Point: 63°   Wind: 5mph
Humidity: 94%   Direction: 130°SE
Pressure: 30.06"   Gusts: NA
Location:  13.61°S, 42.94°W
Report Text: SBQV 270900Z 13004KT 9999 SCT010 SCT070 18/17 Q1018
Loading
Personal Weather Stations






























Interactive Weather Map New forecast layout! Learn more

10-Day Weather Forecast

Advertisements
Track Severe Weather on mobile